LYTV/TIV METAR and TAF weather

Enter ICAO airport designator
Station Type Date Time Source
LYTV METAR 2021/07/24 19:00 UTC NOAA

LYTV 241900Z VRB02KT CAVOK 23/15 Q1013 NOSIG


Station Type Date Time Source
LYTV Decoded METAR 2021/07/24 19:00 UTC NOAA

Tivat, Serbia and Montenegro (LYTV) 42-24N 018-44E 5M
Jul 24, 2021 - 03:00 PM EDT / 2021.07.24 1900 UTC
Wind: Variable at 2 MPH (2 KT):0
Visibility: greater than 7 mile(s):0
Temperature: 73 F (23 C)
Dew Point: 59 F (15 C)
Relative Humidity: 60%
Pressure (altimeter): 29.91 in. Hg (1013 hPa)
ob: LYTV 241900Z VRB02KT CAVOK 23/15 Q1013 NOSIG
cycle: 19

Station Type Date Time Source
LYTV TAF 2021/07/24 18:36 UTC NOAA

TAF TAF LYTV 241930Z 2418/2518 CNL

Example: see airport list